createdAt,value
2023-03-13T00:01:50.106Z,6.78
2023-03-13T00:04:20.441Z,7.40
2023-03-13T00:06:49.616Z,7.28
2023-03-13T00:09:18.316Z,6.35
2023-03-13T00:11:54.954Z,7.45
2023-03-13T00:14:24.942Z,6.65
2023-03-13T00:16:53.417Z,7.68
2023-03-13T00:19:21.436Z,8.02
2023-03-13T00:21:52.127Z,8.02
2023-03-13T00:24:20.916Z,8.88
2023-03-13T00:26:48.604Z,7.50
2023-03-13T00:29:19.220Z,7.30
2023-03-13T00:31:51.699Z,7.85
2023-03-13T00:34:22.214Z,9.23
2023-03-13T00:36:50.792Z,7.20
2023-03-13T00:39:25.245Z,7.38
2023-03-13T00:42:11.386Z,7.80
2023-03-13T00:44:40.656Z,8.07
2023-03-13T00:47:09.455Z,6.68
2023-03-13T00:49:38.080Z,7.70
2023-03-13T00:52:06.824Z,8.48
2023-03-13T00:54:45.236Z,10.40
2023-03-13T00:57:13.468Z,7.45
2023-03-13T00:59:49.694Z,8.05
2023-03-13T01:02:18.439Z,8.38
2023-03-13T01:04:46.287Z,7.97
2023-03-13T01:07:16.145Z,8.57
2023-03-13T01:09:45.056Z,8.25
2023-03-13T01:12:16.635Z,8.07
2023-03-13T01:14:45.513Z,7.03
2023-03-13T01:17:13.495Z,8.50
2023-03-13T01:19:42.024Z,10.32
2023-03-13T01:22:13.141Z,8.82
2023-03-13T01:24:43.716Z,11.07
2023-03-13T01:27:11.932Z,9.20
2023-03-13T01:29:42.010Z,8.93
2023-03-13T01:32:10.912Z,10.55
2023-03-13T01:34:40.911Z,8.20
2023-03-13T01:37:09.908Z,9.40
2023-03-13T01:39:38.187Z,9.68
2023-03-13T01:42:07.234Z,9.02
2023-03-13T01:44:57.587Z,7.95
2023-03-13T01:47:26.805Z,9.40
2023-03-13T01:50:04.022Z,9.52
2023-03-13T01:52:47.099Z,11.32
2023-03-13T01:55:20.849Z,9.63
2023-03-13T01:57:57.354Z,12.23
2023-03-13T02:00:34.739Z,11.13
2023-03-13T02:03:17.509Z,10.88
2023-03-13T02:06:13.093Z,8.68
2023-03-13T02:08:58.624Z,10.57
2023-03-13T02:11:57.328Z,10.57
2023-03-13T02:14:32.406Z,10.25
2023-03-13T02:17:02.278Z,9.30
2023-03-13T02:19:52.681Z,9.38
2023-03-13T02:22:34.615Z,9.80
2023-03-13T02:25:26.262Z,9.40
2023-03-13T02:28:33.977Z,7.65
2023-03-13T02:31:08.340Z,9.38
2023-03-13T02:33:40.845Z,8.75
2023-03-13T02:36:18.127Z,8.45
2023-03-13T02:39:01.996Z,9.80
2023-03-13T02:41:33.576Z,8.27
2023-03-13T02:44:02.430Z,8.70
2023-03-13T02:46:32.746Z,6.82
2023-03-13T02:49:21.928Z,7.13
2023-03-13T02:51:55.520Z,8.73
2023-03-13T02:54:30.728Z,7.15
2023-03-13T03:00:02.521Z,8.05
2023-03-13T03:02:31.876Z,8.07
2023-03-13T03:05:00.183Z,7.78
2023-03-13T03:07:27.992Z,7.22
2023-03-13T03:09:57.485Z,8.40
2023-03-13T03:12:25.200Z,8.18
2023-03-13T03:14:53.284Z,9.45
2023-03-13T03:17:23.394Z,9.57
2023-03-13T03:19:51.393Z,8.20
2023-03-13T03:22:29.056Z,7.47
2023-03-13T03:25:06.439Z,8.18
2023-03-13T03:30:23.007Z,7.80
2023-03-13T03:32:56.541Z,8.35
2023-03-13T03:35:24.684Z,8.35
2023-03-13T03:37:53.225Z,8.07
2023-03-13T03:40:32.812Z,7.38
2023-03-13T03:43:01.627Z,7.35
2023-03-13T03:45:37.879Z,6.70
2023-03-13T03:48:12.848Z,8.63
2023-03-13T03:50:47.080Z,8.23
2023-03-13T03:53:18.688Z,8.88
2023-03-13T03:55:46.793Z,7.72
2023-03-13T03:58:21.003Z,6.90
2023-03-13T04:01:01.274Z,8.48
2023-03-13T04:03:29.039Z,7.72
2023-03-13T04:06:02.819Z,8.25
2023-03-13T04:08:35.354Z,7.35
2023-03-13T04:11:03.263Z,7.50
2023-03-13T04:13:35.200Z,7.47
2023-03-13T04:16:10.568Z,8.20
2023-03-13T04:18:39.174Z,8.70
2023-03-13T04:21:07.848Z,8.27
2023-03-13T04:23:43.915Z,8.18
2023-03-13T04:26:18.614Z,8.32
2023-03-13T04:28:49.886Z,9.32
2023-03-13T04:31:24.493Z,8.80
2023-03-13T04:34:20.612Z,9.48
2023-03-13T04:37:06.919Z,9.70
2023-03-13T04:39:44.484Z,8.85
2023-03-13T04:42:20.903Z,8.27
2023-03-13T04:45:15.597Z,7.55
2023-03-13T04:47:58.819Z,8.63
2023-03-13T04:50:43.945Z,7.88
2023-03-13T04:53:31.383Z,7.72
2023-03-13T04:56:41.084Z,7.60
2023-03-13T04:59:34.111Z,6.63
2023-03-13T05:02:28.845Z,7.57
2023-03-13T05:05:16.316Z,7.60
2023-03-13T05:08:18.669Z,5.90
2023-03-13T05:10:57.701Z,6.95
2023-03-13T05:13:45.036Z,5.45
2023-03-13T05:16:34.932Z,6.63
2023-03-13T05:19:20.987Z,5.65
2023-03-13T05:22:14.615Z,5.80
2023-03-13T05:25:05.908Z,5.72
2023-03-13T05:27:54.842Z,5.15
2023-03-13T05:30:42.401Z,5.50
2023-03-13T05:33:22.076Z,4.93
2023-03-13T05:36:13.335Z,4.97
2023-03-13T05:38:58.503Z,4.60
2023-03-13T05:41:54.652Z,5.78
2023-03-13T05:44:55.515Z,5.30
2023-03-13T05:47:50.110Z,5.07
2023-03-13T05:50:34.423Z,5.00
2023-03-13T05:53:22.721Z,4.78
2023-03-13T05:56:06.996Z,4.75
2023-03-13T05:58:49.609Z,4.90
2023-03-13T06:04:19.058Z,4.22
2023-03-13T06:06:47.650Z,4.35
2023-03-13T06:09:20.043Z,5.13
2023-03-13T06:12:16.892Z,4.88
2023-03-13T06:14:44.781Z,4.18
2023-03-13T06:17:33.272Z,4.28
2023-03-13T06:20:07.819Z,4.53
2023-03-13T06:22:35.787Z,4.60
2023-03-13T06:25:03.452Z,4.82
2023-03-13T06:27:33.486Z,4.55
2023-03-13T06:30:00.937Z,4.05
2023-03-13T06:32:30.615Z,5.63
2023-03-13T06:34:59.752Z,4.45
2023-03-13T06:37:31.296Z,4.60
2023-03-13T06:40:00.416Z,5.00
2023-03-13T06:42:29.524Z,4.50
2023-03-13T06:44:59.502Z,4.90
2023-03-13T06:47:30.634Z,4.00
2023-03-13T06:50:01.396Z,4.95
2023-03-13T06:52:42.821Z,4.95
2023-03-13T06:55:13.537Z,5.35
2023-03-13T06:57:42.496Z,4.65
2023-03-13T07:00:11.800Z,4.95
2023-03-13T07:02:40.284Z,4.30
2023-03-13T07:05:11.328Z,4.75
2023-03-13T07:07:40.516Z,4.72
2023-03-13T07:10:12.022Z,5.22
2023-03-13T07:12:39.493Z,4.32
2023-03-13T07:15:10.329Z,4.35
2023-03-13T07:17:38.921Z,5.07
2023-03-13T07:20:11.250Z,4.78
2023-03-13T07:22:40.564Z,4.07
2023-03-13T07:25:09.718Z,4.47
2023-03-13T07:27:38.859Z,3.45
2023-03-13T07:30:11.756Z,3.78
2023-03-13T07:32:42.948Z,4.70
2023-03-13T07:35:13.301Z,4.50
2023-03-13T07:40:30.743Z,4.88
2023-03-13T07:43:03.815Z,4.07
2023-03-13T07:45:33.036Z,4.38
2023-03-13T07:48:01.038Z,4.95
2023-03-13T07:50:40.589Z,4.28
2023-03-13T07:53:27.381Z,4.15
2023-03-13T07:58:50.289Z,4.97
2023-03-13T08:01:30.337Z,3.90
2023-03-13T08:04:01.719Z,4.95
2023-03-13T08:06:37.514Z,4.05
2023-03-13T08:09:06.781Z,4.68
2023-03-13T08:11:35.951Z,4.45
2023-03-13T08:16:50.317Z,3.88
2023-03-13T08:19:17.998Z,4.35
2023-03-13T08:21:50.327Z,4.07
2023-03-13T08:24:19.098Z,4.15
2023-03-13T08:26:48.861Z,4.35
2023-03-13T08:29:20.649Z,4.38
2023-03-13T08:31:54.074Z,4.78
2023-03-13T08:34:25.596Z,4.18
2023-03-13T08:37:01.572Z,4.28
2023-03-13T08:39:33.529Z,4.93
2023-03-13T08:42:02.107Z,4.35
2023-03-13T08:44:34.459Z,5.03
2023-03-13T08:47:11.820Z,3.90
2023-03-13T08:49:42.901Z,4.90
2023-03-13T08:52:12.023Z,4.80
2023-03-13T08:54:39.414Z,5.00
2023-03-13T08:57:08.368Z,4.30
2023-03-13T08:59:37.490Z,4.20
2023-03-13T09:02:05.746Z,4.90
2023-03-13T09:04:34.901Z,5.95
2023-03-13T09:07:08.386Z,5.13
2023-03-13T09:09:44.413Z,4.53
2023-03-13T09:12:29.646Z,4.60
2023-03-13T09:14:58.993Z,5.45
2023-03-13T09:17:27.779Z,4.38
2023-03-13T09:20:23.650Z,3.80
2023-03-13T09:22:56.552Z,3.92
2023-03-13T09:25:31.209Z,4.28
2023-03-13T09:28:00.128Z,3.42
2023-03-13T09:30:28.753Z,3.80
2023-03-13T09:33:02.303Z,3.83
2023-03-13T09:35:35.928Z,3.42
2023-03-13T09:38:07.016Z,3.28
2023-03-13T09:41:04.903Z,3.63
2023-03-13T09:43:51.385Z,4.43
2023-03-13T09:46:44.958Z,3.65
2023-03-13T09:49:54.616Z,3.58
2023-03-13T09:52:41.029Z,3.35
2023-03-13T09:55:30.409Z,2.97
2023-03-13T09:58:24.484Z,3.97
2023-03-13T10:01:12.499Z,3.40
2023-03-13T10:03:48.591Z,3.28
2023-03-13T10:06:27.376Z,3.67
2023-03-13T10:08:55.045Z,3.08
2023-03-13T10:12:20.910Z,2.60
2023-03-13T10:15:17.126Z,3.47
2023-03-13T10:17:48.166Z,3.10
2023-03-13T10:20:33.911Z,2.90
2023-03-13T10:23:28.340Z,3.40
2023-03-13T10:25:56.619Z,3.20
2023-03-13T10:28:26.631Z,2.45
2023-03-13T10:31:12.221Z,2.85
2023-03-13T10:33:47.153Z,2.60
2023-03-13T10:36:21.148Z,2.65
2023-03-13T10:38:55.461Z,2.47
2023-03-13T10:41:34.813Z,2.70
2023-03-13T10:44:09.251Z,2.72
2023-03-13T10:46:44.731Z,2.50
2023-03-13T10:49:22.779Z,3.25
2023-03-13T10:51:57.014Z,2.90
2023-03-13T10:54:47.156Z,2.10
2023-03-13T10:57:36.938Z,2.88
2023-03-13T11:00:40.774Z,3.65
2023-03-13T11:03:19.462Z,2.40
2023-03-13T11:06:05.161Z,2.35
2023-03-13T11:08:39.427Z,2.67
2023-03-13T11:11:21.511Z,2.60
2023-03-13T11:13:49.936Z,2.45
2023-03-13T11:16:23.526Z,2.30
2023-03-13T11:18:59.678Z,2.42
2023-03-13T11:22:16.882Z,2.33
2023-03-13T11:25:10.086Z,2.10
2023-03-13T11:28:21.940Z,2.50
2023-03-13T11:31:11.348Z,2.47
2023-03-13T11:33:57.542Z,2.42
2023-03-13T11:37:09.931Z,2.28
2023-03-13T11:40:01.870Z,2.00
2023-03-13T11:43:24.944Z,2.22
2023-03-13T11:46:47.522Z,2.70
2023-03-13T11:49:30.737Z,2.22
2023-03-13T11:52:55.560Z,2.08
2023-03-13T11:56:12.222Z,2.00
2023-03-13T11:59:03.379Z,2.50
2023-03-13T12:01:38.739Z,2.58
2023-03-13T12:04:36.077Z,2.10
2023-03-13T12:07:12.102Z,2.45
2023-03-13T12:09:50.026Z,2.58
2023-03-13T12:12:49.058Z,1.92
2023-03-13T12:15:32.695Z,2.10
2023-03-13T12:18:42.300Z,2.15
2023-03-13T12:21:38.030Z,2.42
2023-03-13T12:24:24.660Z,2.20
2023-03-13T12:27:10.908Z,2.17
2023-03-13T12:29:54.101Z,1.83
2023-03-13T12:33:11.632Z,2.08
2023-03-13T12:35:49.686Z,2.08
2023-03-13T12:38:26.662Z,2.13
2023-03-13T12:41:18.679Z,2.22
2023-03-13T12:44:06.835Z,2.35
2023-03-13T12:46:59.413Z,2.25
2023-03-13T12:50:39.072Z,2.35
2023-03-13T12:53:37.886Z,2.53
2023-03-13T12:56:49.602Z,1.98
2023-03-13T12:59:47.742Z,2.40
2023-03-13T13:02:47.542Z,2.25
2023-03-13T13:05:58.944Z,2.75
2023-03-13T13:08:33.527Z,2.50
2023-03-13T13:11:39.330Z,1.88
2023-03-13T13:14:15.917Z,2.25
2023-03-13T13:17:16.452Z,2.33
2023-03-13T13:19:46.829Z,2.17
2023-03-13T13:22:39.212Z,2.00
2023-03-13T13:25:31.303Z,2.15
2023-03-13T13:28:21.859Z,3.15
2023-03-13T13:30:54.640Z,2.47
2023-03-13T13:33:30.996Z,1.85
2023-03-13T13:36:10.283Z,2.80
2023-03-13T13:38:42.276Z,1.95
2023-03-13T13:44:28.306Z,2.25
2023-03-13T13:47:02.121Z,2.28
2023-03-13T13:49:36.590Z,2.75
2023-03-13T13:52:24.368Z,1.88
2023-03-13T13:54:59.441Z,2.30
2023-03-13T13:57:32.623Z,2.88
2023-03-13T14:00:24.309Z,2.53
2023-03-13T14:02:55.705Z,2.13
2023-03-13T14:05:33.135Z,2.15
2023-03-13T14:08:21.156Z,2.83
2023-03-13T14:11:38.541Z,2.10
2023-03-13T14:14:20.667Z,2.40
2023-03-13T14:16:54.684Z,1.75
2023-03-13T14:19:42.460Z,2.10
2023-03-13T14:22:14.504Z,2.30
2023-03-13T14:24:56.016Z,2.30
2023-03-13T14:27:23.437Z,2.40
2023-03-13T14:30:09.104Z,2.42
2023-03-13T14:32:38.856Z,2.22
2023-03-13T14:35:10.474Z,2.22
2023-03-13T14:38:04.063Z,1.90
2023-03-13T14:40:46.529Z,2.28
2023-03-13T14:43:47.601Z,1.75
2023-03-13T14:46:34.764Z,2.30
2023-03-13T14:52:17.697Z,2.38
2023-03-13T14:55:27.324Z,3.10
2023-03-13T14:58:25.165Z,2.08
2023-03-13T15:00:52.780Z,2.10
2023-03-13T15:03:29.153Z,2.28
2023-03-13T15:06:12.808Z,2.05
2023-03-13T15:08:49.333Z,2.63
2023-03-13T15:11:34.022Z,2.45
2023-03-13T15:14:02.528Z,2.40
2023-03-13T15:16:30.219Z,2.35
2023-03-13T15:18:59.625Z,2.72
2023-03-13T15:21:33.411Z,2.25
2023-03-13T15:24:12.083Z,2.13
2023-03-13T15:26:41.981Z,2.47
2023-03-13T15:29:20.009Z,2.17
2023-03-13T15:32:56.223Z,2.50
2023-03-13T15:35:45.773Z,2.72
2023-03-13T15:48:41.665Z,2.20
2023-03-13T15:52:17.837Z,2.03
2023-03-13T16:03:01.572Z,2.35
2023-03-13T16:27:31.342Z,2.40
2023-03-13T16:49:21.079Z,3.30
2023-03-13T16:56:30.205Z,2.85
2023-03-13T18:34:58.253Z,3.35
2023-03-13T18:37:50.931Z,3.40
2023-03-13T18:49:29.645Z,3.25
2023-03-13T18:58:01.254Z,3.97
2023-03-13T19:00:59.110Z,4.05
2023-03-13T19:18:04.950Z,3.92
2023-03-13T20:01:38.407Z,4.68
2023-03-13T20:15:37.200Z,4.03
2023-03-13T22:49:04.002Z,3.42
2023-03-13T22:51:48.665Z,3.70
2023-03-13T23:01:19.366Z,4.18
2023-03-13T23:07:58.052Z,3.95
2023-03-13T23:53:20.927Z,3.63
2023-03-13T23:56:10.320Z,3.85
2023-03-13T23:58:38.591Z,3.38
